sensor_id;sensor_type;location;lat;lon;timestamp;P1;durP1;ratioP1;P2;durP2;ratioP2
77802;SDS011;66993;48.256;16.422;2023-06-22T00:04:46;19.5;;;7.8;;
77802;SDS011;66993;48.256;16.422;2023-06-22T00:09:48;15.0;;;7.7;;
77802;SDS011;66993;48.256;16.422;2023-06-22T00:14:49;16.7;;;6.9;;
77802;SDS011;66993;48.256;16.422;2023-06-22T00:19:50;12.7;;;7.2;;
77802;SDS011;66993;48.256;16.422;2023-06-22T00:24:52;11.5;;;6.3;;
77802;SDS011;66993;48.256;16.422;2023-06-22T00:29:53;17.1;;;7.0;;
77802;SDS011;66993;48.256;16.422;2023-06-22T00:34:54;18.4;;;7.3;;
77802;SDS011;66993;48.256;16.422;2023-06-22T00:39:56;14.1;;;6.9;;
77802;SDS011;66993;48.256;16.422;2023-06-22T00:44:58;14.8;;;7.7;;
77802;SDS011;66993;48.256;16.422;2023-06-22T00:49:58;21.1;;;8.8;;
77802;SDS011;66993;48.256;16.422;2023-06-22T00:55:00;17.3;;;7.7;;
77802;SDS011;66993;48.256;16.422;2023-06-22T01:00:01;14.9;;;7.4;;
77802;SDS011;66993;48.256;16.422;2023-06-22T01:05:02;13.0;;;7.0;;
77802;SDS011;66993;48.256;16.422;2023-06-22T01:10:06;13.1;;;6.4;;
77802;SDS011;66993;48.256;16.422;2023-06-22T01:15:07;15.1;;;7.8;;
77802;SDS011;66993;48.256;16.422;2023-06-22T01:20:07;18.9;;;9.1;;
77802;SDS011;66993;48.256;16.422;2023-06-22T01:25:09;19.0;;;9.2;;
77802;SDS011;66993;48.256;16.422;2023-06-22T01:30:09;16.3;;;8.8;;
77802;SDS011;66993;48.256;16.422;2023-06-22T01:35:10;20.5;;;8.9;;
77802;SDS011;66993;48.256;16.422;2023-06-22T01:40:11;17.4;;;9.1;;
77802;SDS011;66993;48.256;16.422;2023-06-22T01:45:13;19.2;;;9.6;;
77802;SDS011;66993;48.256;16.422;2023-06-22T01:50:14;17.5;;;8.5;;
77802;SDS011;66993;48.256;16.422;2023-06-22T01:55:16;23.2;;;11.2;;
77802;SDS011;66993;48.256;16.422;2023-06-22T02:00:18;24.8;;;11.4;;
77802;SDS011;66993;48.256;16.422;2023-06-22T02:05:18;20.6;;;10.7;;
77802;SDS011;66993;48.256;16.422;2023-06-22T02:10:19;14.9;;;8.0;;
77802;SDS011;66993;48.256;16.422;2023-06-22T02:15:21;22.6;;;10.3;;
77802;SDS011;66993;48.256;16.422;2023-06-22T02:20:23;19.0;;;8.9;;
77802;SDS011;66993;48.256;16.422;2023-06-22T02:25:23;16.7;;;9.0;;
77802;SDS011;66993;48.256;16.422;2023-06-22T02:30:25;17.7;;;9.0;;
77802;SDS011;66993;48.256;16.422;2023-06-22T02:35:27;19.0;;;9.1;;
77802;SDS011;66993;48.256;16.422;2023-06-22T02:40:27;19.1;;;9.2;;
77802;SDS011;66993;48.256;16.422;2023-06-22T02:45:29;14.2;;;7.8;;
77802;SDS011;66993;48.256;16.422;2023-06-22T02:50:30;18.1;;;7.9;;
77802;SDS011;66993;48.256;16.422;2023-06-22T02:55:31;16.0;;;8.4;;
77802;SDS011;66993;48.256;16.422;2023-06-22T03:00:32;17.6;;;7.4;;
77802;SDS011;66993;48.256;16.422;2023-06-22T03:05:34;17.8;;;8.8;;
77802;SDS011;66993;48.256;16.422;2023-06-22T03:10:35;16.4;;;8.4;;
77802;SDS011;66993;48.256;16.422;2023-06-22T03:15:36;15.6;;;6.9;;
77802;SDS011;66993;48.256;16.422;2023-06-22T03:20:38;18.2;;;7.4;;
77802;SDS011;66993;48.256;16.422;2023-06-22T03:25:40;13.8;;;7.3;;
77802;SDS011;66993;48.256;16.422;2023-06-22T03:30:40;14.5;;;7.4;;
77802;SDS011;66993;48.256;16.422;2023-06-22T03:35:42;15.8;;;7.5;;
77802;SDS011;66993;48.256;16.422;2023-06-22T03:40:43;14.8;;;7.3;;
77802;SDS011;66993;48.256;16.422;2023-06-22T03:45:44;17.2;;;7.4;;
77802;SDS011;66993;48.256;16.422;2023-06-22T03:50:45;19.5;;;7.3;;
77802;SDS011;66993;48.256;16.422;2023-06-22T03:55:48;16.8;;;8.0;;
77802;SDS011;66993;48.256;16.422;2023-06-22T04:00:49;17.3;;;8.1;;
77802;SDS011;66993;48.256;16.422;2023-06-22T04:05:49;16.5;;;7.6;;
77802;SDS011;66993;48.256;16.422;2023-06-22T04:10:51;20.5;;;8.1;;
77802;SDS011;66993;48.256;16.422;2023-06-22T04:15:52;21.8;;;9.3;;
77802;SDS011;66993;48.256;16.422;2023-06-22T04:20:53;18.6;;;8.8;;
77802;SDS011;66993;48.256;16.422;2023-06-22T04:25:55;19.6;;;9.2;;
77802;SDS011;66993;48.256;16.422;2023-06-22T04:30:56;19.6;;;9.0;;
77802;SDS011;66993;48.256;16.422;2023-06-22T04:35:57;18.8;;;8.9;;
77802;SDS011;66993;48.256;16.422;2023-06-22T04:40:59;18.1;;;8.8;;
77802;SDS011;66993;48.256;16.422;2023-06-22T04:46:00;21.1;;;9.9;;
77802;SDS011;66993;48.256;16.422;2023-06-22T04:51:01;20.3;;;10.3;;
77802;SDS011;66993;48.256;16.422;2023-06-22T04:56:02;21.2;;;9.0;;
77802;SDS011;66993;48.256;16.422;2023-06-22T05:01:04;20.1;;;9.5;;
77802;SDS011;66993;48.256;16.422;2023-06-22T05:06:05;20.2;;;9.6;;
77802;SDS011;66993;48.256;16.422;2023-06-22T05:11:06;21.8;;;9.5;;
77802;SDS011;66993;48.256;16.422;2023-06-22T05:16:08;20.0;;;9.0;;
77802;SDS011;66993;48.256;16.422;2023-06-22T05:21:09;17.3;;;7.8;;
77802;SDS011;66993;48.256;16.422;2023-06-22T05:26:10;14.9;;;7.1;;
77802;SDS011;66993;48.256;16.422;2023-06-22T05:31:12;13.7;;;6.3;;
77802;SDS011;66993;48.256;16.422;2023-06-22T05:36:14;13.0;;;5.8;;
77802;SDS011;66993;48.256;16.422;2023-06-22T05:41:14;12.5;;;5.8;;
77802;SDS011;66993;48.256;16.422;2023-06-22T05:46:15;15.6;;;6.1;;
77802;SDS011;66993;48.256;16.422;2023-06-22T05:51:17;15.6;;;7.0;;
77802;SDS011;66993;48.256;16.422;2023-06-22T05:56:18;14.7;;;6.5;;
77802;SDS011;66993;48.256;16.422;2023-06-22T06:01:19;18.5;;;7.5;;
77802;SDS011;66993;48.256;16.422;2023-06-22T06:06:21;18.7;;;8.5;;
77802;SDS011;66993;48.256;16.422;2023-06-22T06:11:22;22.9;;;11.1;;
77802;SDS011;66993;48.256;16.422;2023-06-22T06:16:24;21.4;;;9.7;;
77802;SDS011;66993;48.256;16.422;2023-06-22T06:21:25;23.2;;;9.0;;
77802;SDS011;66993;48.256;16.422;2023-06-22T06:26:26;23.1;;;10.7;;
77802;SDS011;66993;48.256;16.422;2023-06-22T06:31:27;23.8;;;10.3;;
77802;SDS011;66993;48.256;16.422;2023-06-22T06:36:29;23.5;;;10.4;;
77802;SDS011;66993;48.256;16.422;2023-06-22T06:41:30;21.2;;;10.0;;
77802;SDS011;66993;48.256;16.422;2023-06-22T06:46:31;19.1;;;8.9;;
77802;SDS011;66993;48.256;16.422;2023-06-22T06:51:32;21.5;;;10.2;;
77802;SDS011;66993;48.256;16.422;2023-06-22T06:56:34;22.2;;;10.1;;
77802;SDS011;66993;48.256;16.422;2023-06-22T07:01:35;22.1;;;10.1;;
77802;SDS011;66993;48.256;16.422;2023-06-22T07:06:37;20.6;;;11.0;;
77802;SDS011;66993;48.256;16.422;2023-06-22T07:11:38;21.1;;;10.3;;
77802;SDS011;66993;48.256;16.422;2023-06-22T07:16:39;20.2;;;9.9;;
77802;SDS011;66993;48.256;16.422;2023-06-22T07:21:41;20.6;;;9.4;;
77802;SDS011;66993;48.256;16.422;2023-06-22T07:26:42;15.7;;;8.3;;
77802;SDS011;66993;48.256;16.422;2023-06-22T07:31:44;21.1;;;9.2;;
77802;SDS011;66993;48.256;16.422;2023-06-22T07:36:45;19.5;;;8.2;;
77802;SDS011;66993;48.256;16.422;2023-06-22T07:41:46;16.4;;;8.6;;
77802;SDS011;66993;48.256;16.422;2023-06-22T07:46:47;20.0;;;9.3;;
77802;SDS011;66993;48.256;16.422;2023-06-22T07:51:49;19.3;;;8.7;;
77802;SDS011;66993;48.256;16.422;2023-06-22T07:56:50;15.3;;;6.7;;
77802;SDS011;66993;48.256;16.422;2023-06-22T08:01:51;17.6;;;6.7;;
77802;SDS011;66993;48.256;16.422;2023-06-22T08:06:53;18.4;;;7.8;;
77802;SDS011;66993;48.256;16.422;2023-06-22T08:11:54;16.3;;;8.3;;
77802;SDS011;66993;48.256;16.422;2023-06-22T08:16:55;14.1;;;6.5;;
77802;SDS011;66993;48.256;16.422;2023-06-22T08:21:57;15.8;;;7.1;;
77802;SDS011;66993;48.256;16.422;2023-06-22T08:26:58;16.7;;;7.8;;
77802;SDS011;66993;48.256;16.422;2023-06-22T08:31:59;17.0;;;8.0;;
77802;SDS011;66993;48.256;16.422;2023-06-22T08:37:00;13.7;;;6.5;;
77802;SDS011;66993;48.256;16.422;2023-06-22T08:42:02;18.1;;;6.8;;
77802;SDS011;66993;48.256;16.422;2023-06-22T08:47:03;14.7;;;6.7;;
77802;SDS011;66993;48.256;16.422;2023-06-22T08:52:05;15.2;;;6.3;;
77802;SDS011;66993;48.256;16.422;2023-06-22T08:57:06;16.5;;;6.3;;
77802;SDS011;66993;48.256;16.422;2023-06-22T09:02:07;12.3;;;5.4;;
77802;SDS011;66993;48.256;16.422;2023-06-22T09:07:09;15.9;;;6.0;;
77802;SDS011;66993;48.256;16.422;2023-06-22T09:12:10;13.6;;;5.8;;
77802;SDS011;66993;48.256;16.422;2023-06-22T09:17:12;14.3;;;5.3;;
77802;SDS011;66993;48.256;16.422;2023-06-22T09:22:13;13.6;;;5.3;;
77802;SDS011;66993;48.256;16.422;2023-06-22T09:27:14;11.8;;;5.0;;
77802;SDS011;66993;48.256;16.422;2023-06-22T09:32:15;14.4;;;5.1;;
77802;SDS011;66993;48.256;16.422;2023-06-22T09:37:17;14.3;;;5.7;;
77802;SDS011;66993;48.256;16.422;2023-06-22T09:42:18;12.5;;;4.8;;
77802;SDS011;66993;48.256;16.422;2023-06-22T09:47:20;12.0;;;5.0;;
77802;SDS011;66993;48.256;16.422;2023-06-22T09:52:20;13.3;;;5.0;;
77802;SDS011;66993;48.256;16.422;2023-06-22T09:57:22;10.8;;;5.2;;
77802;SDS011;66993;48.256;16.422;2023-06-22T10:02:23;11.1;;;5.2;;
77802;SDS011;66993;48.256;16.422;2023-06-22T10:07:25;12.4;;;5.9;;
77802;SDS011;66993;48.256;16.422;2023-06-22T10:12:27;12.3;;;6.2;;
77802;SDS011;66993;48.256;16.422;2023-06-22T10:17:28;10.6;;;4.8;;
77802;SDS011;66993;48.256;16.422;2023-06-22T10:22:29;12.6;;;5.4;;
77802;SDS011;66993;48.256;16.422;2023-06-22T10:27:30;10.4;;;4.8;;
77802;SDS011;66993;48.256;16.422;2023-06-22T10:32:31;9.9;;;4.7;;
77802;SDS011;66993;48.256;16.422;2023-06-22T10:37:33;10.4;;;5.0;;
77802;SDS011;66993;48.256;16.422;2023-06-22T10:42:35;9.9;;;4.7;;
77802;SDS011;66993;48.256;16.422;2023-06-22T10:47:36;12.8;;;4.7;;
77802;SDS011;66993;48.256;16.422;2023-06-22T10:52:37;10.5;;;4.2;;
77802;SDS011;66993;48.256;16.422;2023-06-22T10:57:38;11.5;;;4.4;;
77802;SDS011;66993;48.256;16.422;2023-06-22T11:02:39;10.3;;;4.0;;
77802;SDS011;66993;48.256;16.422;2023-06-22T11:07:41;10.9;;;4.0;;
77802;SDS011;66993;48.256;16.422;2023-06-22T11:12:42;12.9;;;4.4;;
77802;SDS011;66993;48.256;16.422;2023-06-22T11:17:43;11.0;;;4.2;;
77802;SDS011;66993;48.256;16.422;2023-06-22T11:22:45;9.6;;;4.3;;
77802;SDS011;66993;48.256;16.422;2023-06-22T11:27:46;12.7;;;5.2;;
77802;SDS011;66993;48.256;16.422;2023-06-22T11:32:47;12.2;;;6.0;;
77802;SDS011;66993;48.256;16.422;2023-06-22T11:37:49;10.8;;;5.7;;
77802;SDS011;66993;48.256;16.422;2023-06-22T11:42:50;11.8;;;5.2;;
77802;SDS011;66993;48.256;16.422;2023-06-22T11:47:52;10.6;;;4.5;;
77802;SDS011;66993;48.256;16.422;2023-06-22T11:52:53;11.2;;;5.1;;
77802;SDS011;66993;48.256;16.422;2023-06-22T11:57:54;11.5;;;4.7;;
77802;SDS011;66993;48.256;16.422;2023-06-22T12:02:56;10.7;;;4.4;;
77802;SDS011;66993;48.256;16.422;2023-06-22T12:07:57;9.6;;;4.1;;
77802;SDS011;66993;48.256;16.422;2023-06-22T12:12:58;9.4;;;4.1;;
77802;SDS011;66993;48.256;16.422;2023-06-22T12:18:00;7.6;;;3.9;;
77802;SDS011;66993;48.256;16.422;2023-06-22T12:23:01;9.8;;;3.9;;
77802;SDS011;66993;48.256;16.422;2023-06-22T12:28:02;9.8;;;4.0;;
77802;SDS011;66993;48.256;16.422;2023-06-22T12:33:04;10.3;;;3.8;;
77802;SDS011;66993;48.256;16.422;2023-06-22T12:38:05;9.6;;;3.8;;
77802;SDS011;66993;48.256;16.422;2023-06-22T12:43:06;9.7;;;4.0;;
77802;SDS011;66993;48.256;16.422;2023-06-22T12:48:08;11.5;;;4.1;;
77802;SDS011;66993;48.256;16.422;2023-06-22T12:53:09;11.1;;;3.8;;
77802;SDS011;66993;48.256;16.422;2023-06-22T12:58:11;10.5;;;3.7;;
77802;SDS011;66993;48.256;16.422;2023-06-22T13:03:12;8.4;;;3.6;;
77802;SDS011;66993;48.256;16.422;2023-06-22T13:08:13;9.6;;;3.6;;
77802;SDS011;66993;48.256;16.422;2023-06-22T13:13:14;8.0;;;3.6;;
77802;SDS011;66993;48.256;16.422;2023-06-22T13:18:16;11.0;;;3.5;;
77802;SDS011;66993;48.256;16.422;2023-06-22T13:23:17;8.3;;;4.1;;
77802;SDS011;66993;48.256;16.422;2023-06-22T13:28:19;12.2;;;3.8;;
77802;SDS011;66993;48.256;16.422;2023-06-22T13:33:20;10.1;;;3.9;;
77802;SDS011;66993;48.256;16.422;2023-06-22T13:38:22;8.3;;;3.7;;
77802;SDS011;66993;48.256;16.422;2023-06-22T13:43:22;8.1;;;3.9;;
77802;SDS011;66993;48.256;16.422;2023-06-22T13:48:24;11.6;;;4.4;;
77802;SDS011;66993;48.256;16.422;2023-06-22T13:53:25;12.9;;;3.6;;
77802;SDS011;66993;48.256;16.422;2023-06-22T13:58:27;10.8;;;3.3;;
77802;SDS011;66993;48.256;16.422;2023-06-22T14:03:28;9.3;;;3.9;;
77802;SDS011;66993;48.256;16.422;2023-06-22T14:08:29;10.8;;;4.1;;
77802;SDS011;66993;48.256;16.422;2023-06-22T14:13:30;11.4;;;4.3;;
77802;SDS011;66993;48.256;16.422;2023-06-22T14:18:32;9.7;;;3.9;;
77802;SDS011;66993;48.256;16.422;2023-06-22T14:23:33;9.2;;;4.1;;
77802;SDS011;66993;48.256;16.422;2023-06-22T14:28:35;12.5;;;4.3;;
77802;SDS011;66993;48.256;16.422;2023-06-22T14:33:36;11.8;;;4.0;;
77802;SDS011;66993;48.256;16.422;2023-06-22T14:38:37;9.7;;;4.2;;
77802;SDS011;66993;48.256;16.422;2023-06-22T14:43:38;11.1;;;4.4;;
77802;SDS011;66993;48.256;16.422;2023-06-22T14:48:40;15.1;;;4.7;;
77802;SDS011;66993;48.256;16.422;2023-06-22T14:53:41;10.3;;;5.0;;
77802;SDS011;66993;48.256;16.422;2023-06-22T14:58:43;10.5;;;4.6;;
77802;SDS011;66993;48.256;16.422;2023-06-22T15:03:44;8.7;;;4.4;;
77802;SDS011;66993;48.256;16.422;2023-06-22T15:08:45;11.0;;;5.1;;
77802;SDS011;66993;48.256;16.422;2023-06-22T15:13:46;13.5;;;5.7;;
77802;SDS011;66993;48.256;16.422;2023-06-22T15:18:48;10.7;;;5.2;;
77802;SDS011;66993;48.256;16.422;2023-06-22T15:23:49;13.2;;;6.0;;
77802;SDS011;66993;48.256;16.422;2023-06-22T15:28:51;12.9;;;5.2;;
77802;SDS011;66993;48.256;16.422;2023-06-22T15:33:51;11.8;;;5.2;;
77802;SDS011;66993;48.256;16.422;2023-06-22T15:38:53;14.5;;;5.6;;
77802;SDS011;66993;48.256;16.422;2023-06-22T15:43:54;11.7;;;5.8;;
77802;SDS011;66993;48.256;16.422;2023-06-22T15:48:56;10.3;;;5.3;;
77802;SDS011;66993;48.256;16.422;2023-06-22T15:53:57;12.8;;;5.9;;
77802;SDS011;66993;48.256;16.422;2023-06-22T15:58:58;12.0;;;5.5;;
77802;SDS011;66993;48.256;16.422;2023-06-22T16:03:59;11.1;;;5.4;;
77802;SDS011;66993;48.256;16.422;2023-06-22T16:09:02;15.1;;;6.6;;
77802;SDS011;66993;48.256;16.422;2023-06-22T16:14:02;12.3;;;5.7;;
77802;SDS011;66993;48.256;16.422;2023-06-22T16:19:04;11.9;;;6.2;;
77802;SDS011;66993;48.256;16.422;2023-06-22T16:24:05;12.2;;;6.1;;
77802;SDS011;66993;48.256;16.422;2023-06-22T16:29:06;11.8;;;6.3;;
77802;SDS011;66993;48.256;16.422;2023-06-22T16:34:07;13.1;;;6.3;;
77802;SDS011;66993;48.256;16.422;2023-06-22T16:39:10;11.7;;;6.7;;
77802;SDS011;66993;48.256;16.422;2023-06-22T16:44:10;12.9;;;6.7;;
77802;SDS011;66993;48.256;16.422;2023-06-22T16:49:11;11.4;;;6.6;;
77802;SDS011;66993;48.256;16.422;2023-06-22T16:54:12;12.7;;;7.0;;
77802;SDS011;66993;48.256;16.422;2023-06-22T16:59:14;13.1;;;7.1;;
77802;SDS011;66993;48.256;16.422;2023-06-22T17:04:15;14.8;;;6.9;;
77802;SDS011;66993;48.256;16.422;2023-06-22T17:09:16;16.5;;;7.3;;
77802;SDS011;66993;48.256;16.422;2023-06-22T17:14:17;12.5;;;7.3;;
77802;SDS011;66993;48.256;16.422;2023-06-22T17:19:19;11.6;;;6.8;;
77802;SDS011;66993;48.256;16.422;2023-06-22T17:24:20;12.0;;;7.3;;
77802;SDS011;66993;48.256;16.422;2023-06-22T17:29:27;15.0;;;7.6;;
77802;SDS011;66993;48.256;16.422;2023-06-22T17:34:24;13.3;;;7.5;;
77802;SDS011;66993;48.256;16.422;2023-06-22T17:39:25;13.2;;;7.3;;
77802;SDS011;66993;48.256;16.422;2023-06-22T17:44:26;15.3;;;6.7;;
77802;SDS011;66993;48.256;16.422;2023-06-22T17:49:27;14.0;;;6.2;;
77802;SDS011;66993;48.256;16.422;2023-06-22T17:54:29;11.6;;;5.8;;
77802;SDS011;66993;48.256;16.422;2023-06-22T17:59:32;13.4;;;5.9;;
77802;SDS011;66993;48.256;16.422;2023-06-22T18:04:31;13.1;;;6.1;;
77802;SDS011;66993;48.256;16.422;2023-06-22T18:09:32;13.8;;;6.5;;
77802;SDS011;66993;48.256;16.422;2023-06-22T18:14:33;12.3;;;6.4;;
77802;SDS011;66993;48.256;16.422;2023-06-22T18:19:35;13.3;;;6.4;;
77802;SDS011;66993;48.256;16.422;2023-06-22T18:24:36;17.2;;;6.7;;
77802;SDS011;66993;48.256;16.422;2023-06-22T18:29:37;15.2;;;6.4;;
77802;SDS011;66993;48.256;16.422;2023-06-22T18:34:39;12.9;;;6.9;;
77802;SDS011;66993;48.256;16.422;2023-06-22T18:39:42;17.3;;;7.4;;
77802;SDS011;66993;48.256;16.422;2023-06-22T18:44:41;14.3;;;7.0;;
77802;SDS011;66993;48.256;16.422;2023-06-22T18:49:46;15.7;;;7.4;;
77802;SDS011;66993;48.256;16.422;2023-06-22T18:54:44;17.1;;;6.8;;
77802;SDS011;66993;48.256;16.422;2023-06-22T18:59:47;17.5;;;7.6;;
77802;SDS011;66993;48.256;16.422;2023-06-22T19:04:46;16.2;;;7.4;;
77802;SDS011;66993;48.256;16.422;2023-06-22T19:19:51;15.4;;;7.3;;
77802;SDS011;66993;48.256;16.422;2023-06-22T19:24:52;17.5;;;7.8;;
77802;SDS011;66993;48.256;16.422;2023-06-22T19:29:54;15.7;;;7.7;;
77802;SDS011;66993;48.256;16.422;2023-06-22T19:34:54;13.3;;;7.4;;
77802;SDS011;66993;48.256;16.422;2023-06-22T19:39:56;16.7;;;7.9;;
77802;SDS011;66993;48.256;16.422;2023-06-22T19:44:57;15.8;;;7.0;;
77802;SDS011;66993;48.256;16.422;2023-06-22T19:49:59;16.2;;;8.2;;
77802;SDS011;66993;48.256;16.422;2023-06-22T19:54:59;15.4;;;7.5;;
77802;SDS011;66993;48.256;16.422;2023-06-22T20:00:01;16.9;;;7.1;;
77802;SDS011;66993;48.256;16.422;2023-06-22T20:05:03;16.7;;;7.9;;
77802;SDS011;66993;48.256;16.422;2023-06-22T20:10:06;16.1;;;7.2;;
77802;SDS011;66993;48.256;16.422;2023-06-22T20:15:14;16.3;;;8.1;;
77802;SDS011;66993;48.256;16.422;2023-06-22T20:20:07;17.9;;;8.2;;
77802;SDS011;66993;48.256;16.422;2023-06-22T20:25:07;14.2;;;7.5;;
77802;SDS011;66993;48.256;16.422;2023-06-22T20:30:13;14.4;;;7.3;;
77802;SDS011;66993;48.256;16.422;2023-06-22T20:35:10;15.8;;;7.2;;
77802;SDS011;66993;48.256;16.422;2023-06-22T20:40:11;14.8;;;7.3;;
77802;SDS011;66993;48.256;16.422;2023-06-22T20:45:12;15.4;;;7.8;;
77802;SDS011;66993;48.256;16.422;2023-06-22T20:50:15;15.0;;;7.4;;
77802;SDS011;66993;48.256;16.422;2023-06-22T20:55:15;14.6;;;7.7;;
77802;SDS011;66993;48.256;16.422;2023-06-22T21:00:17;15.3;;;7.6;;
77802;SDS011;66993;48.256;16.422;2023-06-22T21:05:18;15.5;;;8.6;;
77802;SDS011;66993;48.256;16.422;2023-06-22T21:10:19;16.4;;;8.6;;
77802;SDS011;66993;48.256;16.422;2023-06-22T21:15:20;16.7;;;8.4;;
77802;SDS011;66993;48.256;16.422;2023-06-22T21:20:22;16.5;;;8.6;;
77802;SDS011;66993;48.256;16.422;2023-06-22T21:25:23;17.8;;;8.9;;
77802;SDS011;66993;48.256;16.422;2023-06-22T21:30:25;17.3;;;8.8;;
77802;SDS011;66993;48.256;16.422;2023-06-22T21:35:26;15.1;;;9.5;;
77802;SDS011;66993;48.256;16.422;2023-06-22T21:40:27;18.6;;;10.0;;
77802;SDS011;66993;48.256;16.422;2023-06-22T21:45:28;18.6;;;10.4;;
77802;SDS011;66993;48.256;16.422;2023-06-22T21:50:30;18.3;;;10.7;;
77802;SDS011;66993;48.256;16.422;2023-06-22T21:55:31;19.6;;;11.3;;
77802;SDS011;66993;48.256;16.422;2023-06-22T22:00:33;22.4;;;11.2;;
77802;SDS011;66993;48.256;16.422;2023-06-22T22:05:34;20.3;;;12.0;;
77802;SDS011;66993;48.256;16.422;2023-06-22T22:10:35;20.9;;;12.1;;
77802;SDS011;66993;48.256;16.422;2023-06-22T22:15:36;21.4;;;12.6;;
77802;SDS011;66993;48.256;16.422;2023-06-22T22:20:38;25.3;;;13.6;;
77802;SDS011;66993;48.256;16.422;2023-06-22T22:25:39;22.6;;;13.2;;
77802;SDS011;66993;48.256;16.422;2023-06-22T22:30:41;20.4;;;13.4;;
77802;SDS011;66993;48.256;16.422;2023-06-22T22:35:42;21.0;;;14.1;;
77802;SDS011;66993;48.256;16.422;2023-06-22T22:40:43;21.0;;;13.8;;
77802;SDS011;66993;48.256;16.422;2023-06-22T22:45:44;21.4;;;14.6;;
77802;SDS011;66993;48.256;16.422;2023-06-22T22:50:46;23.9;;;15.5;;
77802;SDS011;66993;48.256;16.422;2023-06-22T22:55:47;20.6;;;14.0;;
77802;SDS011;66993;48.256;16.422;2023-06-22T23:00:49;22.3;;;15.1;;
77802;SDS011;66993;48.256;16.422;2023-06-22T23:05:50;21.7;;;13.7;;
77802;SDS011;66993;48.256;16.422;2023-06-22T23:10:52;21.3;;;14.1;;
77802;SDS011;66993;48.256;16.422;2023-06-22T23:15:52;21.6;;;14.0;;
77802;SDS011;66993;48.256;16.422;2023-06-22T23:20:54;23.3;;;13.0;;
77802;SDS011;66993;48.256;16.422;2023-06-22T23:25:55;21.9;;;13.6;;
77802;SDS011;66993;48.256;16.422;2023-06-22T23:30:57;21.4;;;13.6;;
77802;SDS011;66993;48.256;16.422;2023-06-22T23:35:58;22.3;;;14.1;;
77802;SDS011;66993;48.256;16.422;2023-06-22T23:40:59;20.6;;;12.7;;
77802;SDS011;66993;48.256;16.422;2023-06-22T23:46:00;19.4;;;12.3;;
77802;SDS011;66993;48.256;16.422;2023-06-22T23:51:02;22.3;;;13.0;;
77802;SDS011;66993;48.256;16.422;2023-06-22T23:56:03;18.3;;;12.2;;
